createdAt,value
2022-09-28T00:01:04.087Z,16.82
2022-09-28T00:03:31.084Z,16.84
2022-09-28T00:05:58.090Z,16.84
2022-09-28T00:08:25.086Z,16.84
2022-09-28T00:10:52.087Z,16.85
2022-09-28T00:13:19.215Z,16.82
2022-09-28T00:15:46.251Z,16.84
2022-09-28T00:18:13.309Z,16.82
2022-09-28T00:20:40.347Z,16.83
2022-09-28T00:23:07.358Z,16.82
2022-09-28T00:25:34.357Z,16.82
2022-09-28T00:28:01.356Z,16.81
2022-09-28T00:30:28.356Z,16.82
2022-09-28T00:32:55.386Z,16.82
2022-09-28T00:35:22.407Z,16.82
2022-09-28T00:37:49.417Z,16.81
2022-09-28T00:40:16.473Z,16.80
2022-09-28T00:42:45.109Z,16.81
2022-09-28T00:45:12.117Z,16.81
2022-09-28T00:47:39.186Z,16.80
2022-09-28T00:50:06.178Z,16.79
2022-09-28T00:52:33.191Z,16.79
2022-09-28T00:55:00.221Z,16.78
2022-09-28T00:57:27.238Z,16.78
2022-09-28T00:59:54.238Z,16.79
2022-09-28T01:02:21.342Z,16.78
2022-09-28T01:04:48.460Z,16.75
2022-09-28T01:07:15.478Z,16.77
2022-09-28T01:09:44.857Z,16.77
2022-09-28T01:12:11.855Z,16.78
2022-09-28T01:14:38.861Z,16.77
2022-09-28T01:17:05.859Z,16.76
2022-09-28T01:19:32.862Z,16.76
2022-09-28T01:21:59.855Z,16.77
2022-09-28T01:24:26.864Z,16.77
2022-09-28T01:26:53.896Z,16.77
2022-09-28T01:29:20.887Z,16.75
2022-09-28T01:31:47.916Z,16.74
2022-09-28T01:34:15.161Z,16.74
2022-09-28T01:36:42.878Z,16.73
2022-09-28T01:39:09.914Z,16.73
2022-09-28T01:41:36.965Z,16.72
2022-09-28T01:44:04.017Z,16.72
2022-09-28T01:46:31.035Z,16.71
2022-09-28T01:48:58.054Z,16.72
2022-09-28T01:51:25.268Z,16.72
2022-09-28T01:53:52.270Z,16.71
2022-09-28T01:56:19.285Z,16.73
2022-09-28T01:58:46.314Z,16.72
2022-09-28T02:01:13.415Z,16.71
2022-09-28T02:03:40.471Z,16.71
2022-09-28T02:06:07.516Z,16.71
2022-09-28T02:08:34.637Z,16.70
2022-09-28T02:11:01.646Z,16.70
2022-09-28T02:13:28.643Z,16.70
2022-09-28T02:15:55.672Z,16.69
2022-09-28T02:18:22.863Z,16.69
2022-09-28T02:20:49.860Z,16.70
2022-09-28T02:23:16.875Z,16.69
2022-09-28T02:25:45.051Z,16.69
2022-09-28T02:28:12.098Z,16.69
2022-09-28T02:30:40.069Z,16.67
2022-09-28T02:33:07.065Z,16.68
2022-09-28T02:35:35.447Z,16.68
2022-09-28T02:38:02.648Z,16.69
2022-09-28T02:40:29.710Z,16.68
2022-09-28T02:42:56.772Z,16.69
2022-09-28T02:45:23.798Z,16.68
2022-09-28T02:47:50.859Z,16.68
2022-09-28T02:50:17.899Z,16.68
2022-09-28T02:52:44.938Z,16.68
2022-09-28T02:55:11.965Z,16.68
2022-09-28T02:57:38.957Z,16.67
2022-09-28T03:00:08.796Z,16.66
2022-09-28T03:02:35.783Z,16.65
2022-09-28T03:05:02.887Z,16.65
2022-09-28T03:07:29.896Z,16.64
2022-09-28T03:09:56.957Z,16.65
2022-09-28T03:12:24.001Z,16.64
2022-09-28T03:14:50.995Z,16.64
2022-09-28T03:17:18.018Z,16.65
2022-09-28T03:19:45.346Z,16.65
2022-09-28T03:22:12.336Z,16.66
2022-09-28T03:24:39.439Z,16.66
2022-09-28T03:27:06.492Z,16.64
2022-09-28T03:29:34.470Z,16.64
2022-09-28T03:32:01.479Z,16.63
2022-09-28T03:34:28.597Z,16.63
2022-09-28T03:36:55.844Z,16.64
2022-09-28T03:39:22.830Z,16.63
2022-09-28T03:41:49.842Z,16.63
2022-09-28T03:44:16.844Z,16.62
2022-09-28T03:46:43.855Z,16.63
2022-09-28T03:49:11.045Z,16.63
2022-09-28T03:51:38.071Z,16.61
2022-09-28T03:54:05.076Z,16.62
2022-09-28T03:56:32.071Z,16.62
2022-09-28T03:58:59.112Z,16.62
2022-09-28T04:01:26.299Z,16.62
2022-09-28T04:03:53.443Z,16.62
2022-09-28T04:06:20.484Z,16.62
2022-09-28T04:08:47.498Z,16.60
2022-09-28T04:11:14.499Z,16.61
2022-09-28T04:13:41.509Z,16.60
2022-09-28T04:16:09.158Z,16.60
2022-09-28T04:18:36.308Z,16.61
2022-09-28T04:21:03.712Z,16.61
2022-09-28T04:23:30.800Z,16.62
2022-09-28T04:25:58.071Z,16.61
2022-09-28T04:28:43.939Z,16.60
2022-09-28T04:31:10.993Z,16.59
2022-09-28T04:33:38.569Z,16.59
2022-09-28T04:36:06.068Z,16.60
2022-09-28T04:38:51.625Z,16.58
2022-09-28T04:41:19.872Z,16.57
2022-09-28T04:43:46.888Z,16.58
2022-09-28T04:46:13.956Z,16.56
2022-09-28T04:48:41.008Z,16.55
2022-09-28T04:51:08.006Z,16.56
2022-09-28T04:53:35.418Z,16.56
2022-09-28T04:56:02.495Z,16.58
2022-09-28T04:58:29.562Z,16.57
2022-09-28T05:00:56.576Z,16.57
2022-09-28T05:03:23.607Z,16.56
2022-09-28T05:05:50.748Z,16.58
2022-09-28T05:08:18.199Z,16.56
2022-09-28T05:10:45.216Z,16.57
2022-09-28T05:13:12.339Z,16.56
2022-09-28T05:15:39.383Z,16.57
2022-09-28T05:18:06.403Z,16.57
2022-09-28T05:20:33.407Z,16.56
2022-09-28T05:23:00.445Z,16.56
2022-09-28T05:25:27.449Z,16.55
2022-09-28T05:27:55.759Z,16.55
2022-09-28T05:30:22.876Z,16.57
2022-09-28T05:32:51.088Z,16.55
2022-09-28T05:35:18.082Z,16.56
2022-09-28T05:37:45.179Z,16.55
2022-09-28T05:40:12.241Z,16.56
2022-09-28T05:42:39.318Z,16.53
2022-09-28T05:45:06.408Z,16.55
2022-09-28T05:47:33.426Z,16.54
2022-09-28T05:50:00.424Z,16.54
2022-09-28T05:52:27.422Z,16.54
2022-09-28T05:54:54.803Z,16.55
2022-09-28T05:57:21.883Z,16.54
2022-09-28T05:59:48.903Z,16.55
2022-09-28T06:02:15.938Z,16.54
2022-09-28T06:04:42.969Z,16.54
2022-09-28T06:07:10.011Z,16.54
2022-09-28T06:09:37.027Z,16.54
2022-09-28T06:12:04.113Z,16.55
2022-09-28T06:14:31.160Z,16.54
2022-09-28T06:17:04.307Z,16.54
2022-09-28T06:19:31.403Z,16.51
2022-09-28T06:21:59.443Z,16.53
2022-09-28T06:24:29.027Z,16.54
2022-09-28T06:26:56.079Z,16.53
2022-09-28T06:29:23.078Z,16.53
2022-09-28T06:31:50.160Z,16.55
2022-09-28T06:34:17.360Z,16.52
2022-09-28T06:36:44.529Z,16.52
2022-09-28T06:39:11.593Z,16.53
2022-09-28T06:41:38.777Z,16.54
2022-09-28T06:44:05.774Z,16.54
2022-09-28T06:46:32.909Z,16.54
2022-09-28T06:49:00.046Z,16.54
2022-09-28T06:51:27.065Z,16.56
2022-09-28T06:53:54.073Z,16.53
2022-09-28T06:56:21.178Z,16.54
2022-09-28T06:58:48.191Z,16.53
2022-09-28T07:01:15.276Z,16.54
2022-09-28T07:03:42.591Z,16.54
2022-09-28T07:06:09.614Z,16.55
2022-09-28T07:08:36.621Z,16.55
2022-09-28T07:11:03.693Z,16.54
2022-09-28T07:13:49.589Z,16.54
2022-09-28T07:16:19.605Z,16.55
2022-09-28T07:18:48.651Z,16.55
2022-09-28T07:21:28.225Z,16.56
2022-09-28T07:23:57.414Z,16.54
2022-09-28T07:26:25.658Z,16.55
2022-09-28T07:28:52.842Z,16.54
2022-09-28T07:31:19.965Z,16.55
2022-09-28T07:33:47.511Z,16.54
2022-09-28T07:36:17.873Z,16.54
2022-09-28T07:38:44.993Z,16.55
2022-09-28T07:41:12.140Z,16.56
2022-09-28T07:43:40.015Z,16.56
2022-09-28T07:46:13.510Z,16.55
2022-09-28T07:48:41.078Z,16.55
2022-09-28T07:51:08.427Z,16.57
2022-09-28T07:53:35.498Z,16.56
2022-09-28T07:56:08.624Z,16.57
2022-09-28T07:58:35.740Z,16.56
2022-09-28T08:01:02.804Z,16.56
2022-09-28T08:03:29.847Z,16.57
2022-09-28T08:05:56.947Z,16.56
2022-09-28T08:08:23.951Z,16.55
2022-09-28T08:10:53.183Z,16.55
2022-09-28T08:13:22.255Z,16.54
2022-09-28T08:15:51.947Z,16.54
2022-09-28T08:18:19.010Z,16.54
2022-09-28T08:21:04.931Z,16.55
2022-09-28T08:23:31.938Z,16.55
2022-09-28T08:25:59.065Z,16.55
2022-09-28T08:28:26.218Z,16.58
2022-09-28T08:30:54.345Z,16.58
2022-09-28T08:33:21.713Z,16.57
2022-09-28T08:35:48.787Z,16.55
2022-09-28T08:38:15.851Z,16.57
2022-09-28T08:40:42.930Z,16.56
2022-09-28T08:43:09.970Z,16.56
2022-09-28T08:45:37.150Z,16.57
2022-09-28T08:48:22.785Z,16.57
2022-09-28T08:50:49.806Z,16.55
2022-09-28T08:53:16.827Z,16.57
2022-09-28T08:55:45.232Z,16.61
2022-09-28T08:58:12.253Z,16.63
2022-09-28T09:00:39.306Z,16.65
2022-09-28T09:03:06.342Z,16.69
2022-09-28T09:05:35.957Z,16.75
2022-09-28T09:08:03.376Z,16.85
2022-09-28T09:10:30.403Z,16.90
2022-09-28T09:12:58.708Z,16.93
2022-09-28T09:15:25.757Z,16.95
2022-09-28T09:17:52.792Z,16.98
2022-09-28T09:20:20.347Z,17.03
2022-09-28T09:22:47.427Z,17.06
2022-09-28T09:25:15.351Z,17.07
2022-09-28T09:27:42.417Z,17.08
2022-09-28T09:30:09.471Z,17.07
2022-09-28T09:32:36.610Z,17.08
2022-09-28T09:35:05.541Z,17.09
2022-09-28T09:37:34.558Z,17.10
2022-09-28T09:40:01.563Z,17.13
2022-09-28T09:42:29.838Z,17.17
2022-09-28T09:44:57.216Z,17.18
2022-09-28T09:47:24.245Z,17.15
2022-09-28T09:49:51.255Z,17.17
2022-09-28T09:52:18.256Z,17.19
2022-09-28T09:54:45.544Z,17.20
2022-09-28T09:57:12.662Z,17.20
2022-09-28T09:59:39.711Z,17.22
2022-09-28T10:02:09.854Z,17.20
2022-09-28T10:04:38.751Z,17.21
2022-09-28T10:07:05.755Z,17.22
2022-09-28T10:09:32.752Z,17.20
2022-09-28T10:11:59.986Z,17.21
2022-09-28T10:14:27.335Z,17.22
2022-09-28T10:16:54.490Z,17.18
2022-09-28T10:19:34.495Z,17.14
2022-09-28T10:22:02.679Z,17.14
2022-09-28T10:24:29.669Z,17.13
2022-09-28T10:26:56.657Z,17.12
2022-09-28T10:29:23.650Z,17.12
2022-09-28T10:31:50.670Z,17.12
2022-09-28T10:34:18.795Z,17.10
2022-09-28T10:36:45.944Z,17.08
2022-09-28T10:39:13.120Z,17.07
2022-09-28T10:41:40.534Z,17.04
2022-09-28T10:44:08.630Z,17.03
2022-09-28T10:46:35.796Z,17.02
2022-09-28T10:49:02.788Z,17.03
2022-09-28T10:51:29.800Z,17.06
2022-09-28T10:53:57.045Z,17.07
2022-09-28T10:56:24.092Z,17.07
2022-09-28T10:58:52.216Z,17.08
2022-09-28T11:01:19.296Z,17.08
2022-09-28T11:03:46.376Z,17.06
2022-09-28T11:06:13.367Z,17.04
2022-09-28T11:08:40.371Z,17.03
2022-09-28T11:11:07.358Z,17.03
2022-09-28T11:13:34.364Z,17.02
2022-09-28T11:16:01.459Z,17.03
2022-09-28T11:18:31.379Z,17.02
2022-09-28T11:20:58.386Z,17.02
2022-09-28T11:23:25.460Z,17.01
2022-09-28T11:25:52.455Z,17.02
2022-09-28T11:28:19.545Z,17.02
2022-09-28T11:30:48.459Z,17.01
2022-09-28T11:33:19.104Z,17.01
2022-09-28T11:35:46.112Z,17.01
2022-09-28T11:38:13.162Z,17.01
2022-09-28T11:40:40.225Z,17.01
2022-09-28T11:43:07.423Z,17.00
2022-09-28T11:45:34.541Z,17.02
2022-09-28T11:48:01.619Z,17.06
2022-09-28T11:50:28.680Z,17.09
2022-09-28T11:52:55.684Z,17.11
2022-09-28T11:55:22.706Z,17.14
2022-09-28T11:57:49.777Z,17.14
2022-09-28T12:00:16.858Z,17.12
2022-09-28T12:02:43.977Z,17.11
2022-09-28T12:05:17.080Z,17.08
2022-09-28T12:07:49.226Z,17.09
2022-09-28T12:10:16.309Z,17.13
2022-09-28T12:12:43.315Z,17.15
2022-09-28T12:15:10.313Z,17.17
2022-09-28T12:17:37.442Z,17.18
2022-09-28T12:20:04.511Z,17.19
2022-09-28T12:22:31.693Z,17.20
2022-09-28T12:24:58.742Z,17.21
2022-09-28T12:27:25.751Z,17.22
2022-09-28T12:29:52.789Z,17.21
2022-09-28T12:32:19.778Z,17.22
2022-09-28T12:34:46.779Z,17.22
2022-09-28T12:37:13.771Z,17.22
2022-09-28T12:39:57.004Z,17.23
2022-09-28T12:42:29.206Z,17.25
2022-09-28T12:44:59.430Z,17.25
2022-09-28T12:47:26.672Z,17.26
2022-09-28T12:50:36.996Z,17.24
2022-09-28T12:55:08.636Z,17.26
2022-09-28T12:57:36.171Z,17.26
2022-09-28T13:00:03.185Z,17.27
2022-09-28T13:02:30.370Z,17.29
2022-09-28T13:04:57.432Z,17.28
2022-09-28T13:07:24.466Z,17.28
2022-09-28T13:09:51.668Z,17.31
2022-09-28T13:12:18.679Z,17.30
2022-09-28T13:14:45.677Z,17.28
2022-09-28T13:17:12.679Z,17.25
2022-09-28T13:19:39.707Z,17.24
2022-09-28T13:22:06.703Z,17.23
2022-09-28T13:24:33.872Z,17.21
2022-09-28T13:27:01.198Z,17.21
2022-09-28T13:29:28.252Z,17.25
2022-09-28T13:31:55.314Z,17.27
2022-09-28T13:34:22.575Z,17.29
2022-09-28T13:36:49.607Z,17.31
2022-09-28T13:39:16.600Z,17.31
2022-09-28T13:41:43.615Z,17.31
2022-09-28T13:44:10.663Z,17.32
2022-09-28T13:46:37.948Z,17.32
2022-09-28T13:49:04.995Z,17.33
2022-09-28T13:51:32.255Z,17.33
2022-09-28T13:53:59.257Z,17.34
2022-09-28T13:56:26.423Z,17.34
2022-09-28T13:58:53.424Z,17.34
2022-09-28T14:01:20.549Z,17.34
2022-09-28T14:03:47.587Z,17.35
2022-09-28T14:09:01.505Z,17.35
2022-09-28T14:11:28.535Z,17.36
2022-09-28T14:13:55.528Z,17.36
2022-09-28T14:16:22.525Z,17.37
2022-09-28T14:18:49.539Z,17.37
2022-09-28T14:21:16.552Z,17.37
2022-09-28T14:23:43.569Z,17.38
2022-09-28T14:26:10.584Z,17.37
2022-09-28T14:28:37.586Z,17.38
2022-09-28T14:31:04.670Z,17.37
2022-09-28T14:33:31.707Z,17.38
2022-09-28T14:35:58.728Z,17.38
2022-09-28T14:38:44.604Z,17.38
2022-09-28T14:41:12.673Z,17.38
2022-09-28T14:43:39.679Z,17.39
2022-09-28T14:46:06.726Z,17.39
2022-09-28T14:48:33.810Z,17.38
2022-09-28T14:51:00.810Z,17.38
2022-09-28T14:53:28.838Z,17.37
2022-09-28T14:55:55.883Z,17.37
2022-09-28T14:58:22.886Z,17.38
2022-09-28T15:00:49.890Z,17.40
2022-09-28T15:03:17.195Z,17.42
2022-09-28T15:05:44.466Z,17.43
2022-09-28T15:08:11.927Z,17.43
2022-09-28T15:10:39.237Z,17.44
2022-09-28T15:13:06.249Z,17.44
2022-09-28T15:15:33.306Z,17.46
2022-09-28T15:18:00.386Z,17.45
2022-09-28T15:20:30.087Z,17.45
2022-09-28T15:22:57.331Z,17.46
2022-09-28T15:25:24.901Z,17.46
2022-09-28T15:27:52.612Z,17.46
2022-09-28T15:30:19.711Z,17.46
2022-09-28T15:32:46.755Z,17.47
2022-09-28T15:35:17.263Z,17.46
2022-09-28T15:37:44.928Z,17.47
2022-09-28T15:40:11.932Z,17.46
2022-09-28T15:42:38.941Z,17.47
2022-09-28T15:45:07.881Z,17.46
2022-09-28T15:47:39.994Z,17.47
2022-09-28T15:50:09.201Z,17.46
2022-09-28T15:52:36.502Z,17.46
2022-09-28T15:55:05.307Z,17.47
2022-09-28T15:57:33.159Z,17.47
2022-09-28T16:00:00.803Z,17.46
2022-09-28T16:02:27.909Z,17.46
2022-09-28T16:04:55.285Z,17.47
2022-09-28T16:07:23.174Z,17.46
2022-09-28T16:09:50.183Z,17.46
2022-09-28T16:12:19.131Z,17.45
2022-09-28T16:14:46.132Z,17.45
2022-09-28T16:17:13.998Z,17.46
2022-09-28T16:19:41.861Z,17.45
2022-09-28T16:22:09.362Z,17.46
2022-09-28T16:24:36.366Z,17.45
2022-09-28T16:27:03.412Z,17.44
2022-09-28T16:29:30.474Z,17.43
2022-09-28T16:31:57.552Z,17.43
2022-09-28T16:34:24.581Z,17.43
2022-09-28T16:36:51.761Z,17.43
2022-09-28T16:39:19.151Z,17.40
2022-09-28T16:41:46.267Z,17.34
2022-09-28T16:44:13.285Z,17.30
2022-09-28T16:46:40.430Z,17.28
2022-09-28T16:49:07.454Z,17.25
2022-09-28T16:51:34.668Z,17.22
2022-09-28T16:54:20.232Z,17.21
2022-09-28T16:56:47.312Z,17.19
2022-09-28T16:59:14.353Z,17.19
2022-09-28T17:01:43.793Z,17.17
2022-09-28T17:04:12.108Z,17.15
2022-09-28T17:06:39.115Z,17.18
2022-09-28T17:09:07.172Z,17.17
2022-09-28T17:11:34.227Z,17.15
2022-09-28T17:14:03.368Z,17.12
2022-09-28T17:19:18.501Z,17.12
2022-09-28T17:21:45.667Z,17.12
2022-09-28T17:24:12.655Z,17.11
2022-09-28T17:26:39.663Z,17.10
2022-09-28T17:29:09.817Z,17.10
2022-09-28T17:31:36.852Z,17.09
2022-09-28T17:34:03.902Z,17.08
2022-09-28T17:36:30.975Z,17.09
2022-09-28T17:38:58.299Z,17.09
2022-09-28T17:41:25.305Z,17.08
2022-09-28T17:43:52.301Z,17.07
2022-09-28T17:46:19.327Z,17.08
2022-09-28T17:48:47.461Z,17.07
2022-09-28T17:51:14.450Z,17.06
2022-09-28T17:53:41.521Z,17.06
2022-09-28T17:56:09.783Z,17.05
2022-09-28T17:58:38.473Z,17.06
2022-09-28T18:01:05.542Z,17.07
2022-09-28T18:03:32.814Z,17.10
2022-09-28T18:05:59.927Z,17.07
2022-09-28T18:10:30.871Z,17.09
2022-09-28T18:12:57.952Z,17.07
2022-09-28T18:15:25.008Z,17.06
2022-09-28T18:17:52.126Z,17.05
2022-09-28T18:20:19.203Z,17.06
2022-09-28T18:22:46.321Z,17.07
2022-09-28T18:25:13.370Z,17.07
2022-09-28T18:27:40.466Z,17.07
2022-09-28T18:30:07.566Z,17.08
2022-09-28T18:32:35.179Z,17.08
2022-09-28T18:35:02.280Z,17.09
2022-09-28T18:37:29.391Z,17.06
2022-09-28T18:39:56.500Z,17.07
2022-09-28T18:42:23.585Z,17.06
2022-09-28T18:44:50.681Z,17.07
2022-09-28T18:47:18.494Z,17.07
2022-09-28T18:49:46.816Z,17.10
2022-09-28T18:52:14.070Z,17.12
2022-09-28T18:54:41.578Z,17.14
2022-09-28T18:57:08.734Z,17.12
2022-09-28T18:59:35.789Z,17.17
2022-09-28T19:02:03.142Z,17.18
2022-09-28T19:04:31.110Z,17.15
2022-09-28T19:06:58.186Z,17.12
2022-09-28T19:09:26.439Z,17.12
2022-09-28T19:11:53.593Z,17.11
2022-09-28T19:14:20.639Z,17.11
2022-09-28T19:16:47.735Z,17.10
2022-09-28T19:19:14.810Z,17.10
2022-09-28T19:24:58.464Z,17.10
2022-09-28T19:27:25.622Z,17.09
2022-09-28T19:29:52.759Z,17.08
2022-09-28T19:32:19.827Z,17.09
2022-09-28T19:34:46.894Z,17.09
2022-09-28T19:37:13.986Z,17.09
2022-09-28T19:39:41.077Z,17.10
2022-09-28T19:42:08.172Z,17.09
2022-09-28T19:44:35.810Z,17.08
2022-09-28T19:47:09.986Z,17.07
2022-09-28T19:49:37.205Z,17.09
2022-09-28T19:52:13.727Z,17.07
2022-09-28T19:54:43.852Z,17.06
2022-09-28T19:57:11.637Z,17.05
2022-09-28T19:59:38.782Z,17.05
2022-09-28T20:02:05.910Z,17.05
2022-09-28T20:04:32.992Z,17.05
2022-09-28T20:07:00.064Z,17.04
2022-09-28T20:09:27.186Z,17.05
2022-09-28T20:11:54.332Z,17.05
2022-09-28T20:14:23.433Z,17.04
2022-09-28T20:16:52.926Z,17.03
2022-09-28T20:19:22.758Z,17.03
2022-09-28T20:21:49.908Z,17.01
2022-09-28T20:24:17.252Z,17.01
2022-09-28T20:26:44.626Z,16.98
2022-09-28T20:29:11.815Z,16.98
2022-09-28T20:31:38.978Z,16.99
2022-09-28T20:34:06.043Z,16.98
2022-09-28T20:36:33.123Z,16.96
2022-09-28T20:39:03.334Z,16.94
2022-09-28T20:41:33.923Z,16.94
2022-09-28T20:44:05.038Z,16.93
2022-09-28T20:46:33.025Z,16.92
2022-09-28T20:49:00.285Z,16.91
2022-09-28T20:51:27.402Z,16.91
2022-09-28T20:53:54.615Z,16.89
2022-09-28T20:56:21.738Z,16.88
2022-09-28T20:58:50.968Z,16.88
2022-09-28T21:01:18.081Z,16.88
2022-09-28T21:03:46.868Z,16.88
2022-09-28T21:06:14.270Z,16.87
2022-09-28T21:08:41.331Z,16.87
2022-09-28T21:11:08.429Z,16.85
2022-09-28T21:13:35.502Z,16.84
2022-09-28T21:16:02.632Z,16.84
2022-09-28T21:18:30.626Z,16.83
2022-09-28T21:20:57.749Z,16.82
2022-09-28T21:23:25.219Z,16.81
2022-09-28T21:25:52.374Z,16.81
2022-09-28T21:28:19.442Z,16.80
2022-09-28T21:30:46.623Z,16.79
2022-09-28T21:33:13.755Z,16.78
2022-09-28T21:35:40.842Z,16.77
2022-09-28T21:38:07.923Z,16.77
2022-09-28T21:40:35.117Z,16.76
2022-09-28T21:43:02.289Z,16.76
2022-09-28T21:45:29.431Z,16.74
2022-09-28T21:47:56.533Z,16.74
2022-09-28T21:50:23.659Z,16.73
2022-09-28T21:52:50.787Z,16.73
2022-09-28T21:55:17.903Z,16.72
2022-09-28T21:57:44.972Z,16.72
2022-09-28T22:00:12.304Z,16.72
2022-09-28T22:02:39.451Z,16.73
2022-09-28T22:05:09.023Z,16.71
2022-09-28T22:07:36.183Z,16.71
2022-09-28T22:10:03.324Z,16.72
2022-09-28T22:12:30.400Z,16.72
2022-09-28T22:14:57.482Z,16.71
2022-09-28T22:17:24.563Z,16.69
2022-09-28T22:19:51.762Z,16.70
2022-09-28T22:22:18.862Z,16.69
2022-09-28T22:24:45.942Z,16.69
2022-09-28T22:27:13.016Z,16.69
2022-09-28T22:29:40.147Z,16.68
2022-09-28T22:32:07.673Z,16.67
2022-09-28T22:34:34.821Z,16.66
2022-09-28T22:37:03.166Z,16.67
2022-09-28T22:39:34.220Z,16.65
2022-09-28T22:42:03.841Z,16.66
2022-09-28T22:44:30.924Z,16.67
2022-09-28T22:46:58.143Z,16.66
2022-09-28T22:49:26.386Z,16.65
2022-09-28T22:51:53.474Z,16.64
2022-09-28T22:54:21.569Z,16.64
2022-09-28T22:56:48.715Z,16.64
2022-09-28T22:59:15.797Z,16.64
2022-09-28T23:01:43.205Z,16.63
2022-09-28T23:04:10.360Z,16.63
2022-09-28T23:06:37.486Z,16.63
2022-09-28T23:09:04.550Z,16.62
2022-09-28T23:11:31.659Z,16.61
2022-09-28T23:13:58.772Z,16.60
2022-09-28T23:16:26.755Z,16.62
2022-09-28T23:18:54.262Z,16.61
2022-09-28T23:21:21.385Z,16.61
2022-09-28T23:23:48.994Z,16.61
2022-09-28T23:26:17.509Z,16.60
2022-09-28T23:28:44.577Z,16.60
2022-09-28T23:31:11.757Z,16.60
2022-09-28T23:33:39.065Z,16.59
2022-09-28T23:36:06.135Z,16.58
2022-09-28T23:38:33.207Z,16.57
2022-09-28T23:41:00.409Z,16.57
2022-09-28T23:43:27.512Z,16.58
2022-09-28T23:45:54.630Z,16.58
2022-09-28T23:48:21.747Z,16.57
2022-09-28T23:50:48.923Z,16.58
2022-09-28T23:53:15.996Z,16.57
2022-09-28T23:55:43.119Z,16.55
2022-09-28T23:58:10.201Z,16.55
